Time;durP1;ratioP1;P1;durP2;ratioP2;P2;SDS_P1;SDS_P2;PMS_P1;PMS_P2;Temp;Humidity;BMP_temperature;BMP_pressure;BME280_temperature;BME280_humidity;BME280_pressure;Samples;Min_cycle;Max_cycle;Signal;HPM_P1;HPM_P2
2023/05/26 00:01:28;;;;;;;72.30;45.40;;;;;;;12.99;80.70;97766.33;108838;1250;95879;-75
2023/05/26 00:03:57;;;;;;;69.30;44.00;;;;;;;12.98;80.60;97770.04;108768;1251;96044;-74
2023/05/26 00:06:25;;;;;;;73.60;45.10;;;;;;;12.99;80.56;97766.54;108781;1251;104000;-75
2023/05/26 00:08:53;;;;;;;67.30;44.70;;;;;;;13.00;80.52;97768.91;108763;1251;101169;-76
2023/05/26 00:11:22;;;;;;;70.80;44.80;;;;;;;12.97;80.41;97769.58;108783;1251;99784;-75
2023/05/26 00:13:50;;;;;;;68.60;44.20;;;;;;;12.95;80.55;97774.80;108769;1251;95570;-74
2023/05/26 00:16:19;;;;;;;72.50;45.20;;;;;;;12.95;80.68;97773.34;108763;1251;96015;-74
2023/05/26 00:18:47;;;;;;;71.00;45.30;;;;;;;12.97;80.62;97771.50;108630;1251;201749;-75
2023/05/26 00:21:15;;;;;;;72.70;46.10;;;;;;;12.97;80.64;97766.38;108780;1250;101502;-74
2023/05/26 00:23:43;;;;;;;70.00;45.80;;;;;;;12.98;80.63;97766.33;108602;1251;101187;-75
2023/05/26 00:26:11;;;;;;;73.20;44.40;;;;;;;12.98;80.67;97764.08;108804;1250;95636;-74
2023/05/26 00:28:39;;;;;;;72.90;44.30;;;;;;;12.98;80.73;97763.91;108825;1251;96009;-75
2023/05/26 00:31:07;;;;;;;63.10;43.30;;;;;;;12.98;80.69;97764.98;108836;1251;103506;-75
2023/05/26 00:33:35;;;;;;;72.00;43.90;;;;;;;12.99;80.64;97763.61;108743;1251;101712;-75
2023/05/26 00:36:04;;;;;;;66.50;43.70;;;;;;;12.99;80.92;97762.16;108782;1251;100128;-75
2023/05/26 00:38:32;;;;;;;66.20;42.80;;;;;;;12.99;80.88;97764.08;108762;1251;95796;-73
2023/05/26 00:41:00;;;;;;;66.70;43.40;;;;;;;13.00;80.88;97764.48;108816;1251;95989;-76
2023/05/26 00:43:29;;;;;;;69.40;44.10;;;;;;;13.01;80.77;97766.61;108772;1250;103676;-75
2023/05/26 00:45:57;;;;;;;64.30;42.80;;;;;;;13.00;80.72;97762.90;108871;1250;101308;-75
2023/05/26 00:48:25;;;;;;;62.80;41.90;;;;;;;13.00;80.89;97759.32;108853;1250;100195;-74
2023/05/26 00:50:54;;;;;;;67.10;43.10;;;;;;;12.98;80.80;97761.37;108917;1250;95659;-74
2023/05/26 00:53:22;;;;;;;67.10;42.40;;;;;;;12.96;80.87;97759.08;108774;1251;96061;-75
2023/05/26 00:55:54;;;;;;;61.70;39.50;;;;;;;12.95;80.77;97758.21;108877;1250;103597;-75
2023/05/26 00:58:22;;;;;;;;;;;;;;;12.94;80.89;97755.42;108892;1250;101447;-76
2023/05/26 01:00:50;;;;;;;61.20;39.30;;;;;;;12.92;81.10;97754.11;108564;1251;100103;-75
2023/05/26 01:03:19;;;;;;;65.40;40.50;;;;;;;12.91;81.03;97753.75;108837;1250;95616;-74
2023/05/26 01:05:47;;;;;;;64.40;40.90;;;;;;;12.91;80.96;97753.17;108477;1250;96554;-74
2023/05/26 01:08:15;;;;;;;61.90;39.70;;;;;;;12.92;81.03;97753.23;108902;1250;103609;-77
2023/05/26 01:10:43;;;;;;;56.30;38.20;;;;;;;12.92;81.06;97750.48;108889;1250;101653;-74
2023/05/26 01:13:21;;;;;;;58.80;38.90;;;;;;;12.92;80.98;97750.69;108663;1250;100118;-75
2023/05/26 01:16:03;;;;;;;56.90;37.90;;;;;;;12.93;80.93;97749.84;108841;1250;95686;-74
2023/05/26 01:18:42;;;;;;;54.50;36.70;;;;;;;12.93;81.07;97750.89;108854;1250;95602;-74
2023/05/26 01:21:14;;;;;;;53.70;36.20;;;;;;;12.93;80.94;97748.23;108915;1250;103843;-75
2023/05/26 01:24:11;;;;;;;54.50;36.20;;;;;;;12.93;81.16;97745.63;108702;1250;100647;-76
2023/05/26 01:27:10;;;;;;;52.20;35.40;;;;;;;12.93;81.08;97742.59;108888;1250;99649;-73
2023/05/26 01:29:40;;;;;;;53.00;35.10;;;;;;;12.93;81.01;97744.92;108820;1250;95631;-75
2023/05/26 01:32:10;;;;;;;51.70;35.90;;;;;;;12.91;81.24;97745.73;108905;1250;96311;-75
2023/05/26 01:34:38;;;;;;;56.00;35.10;;;;;;;12.91;80.99;97747.30;108873;1250;103544;-74
2023/05/26 01:37:06;;;;;;;55.40;35.80;;;;;;;12.91;81.10;97744.91;108881;1250;101876;-75
2023/05/26 01:39:36;;;;;;;52.10;35.80;;;;;;;12.92;81.21;97744.45;108770;1250;99997;-75
2023/05/26 01:42:19;;;;;;;54.40;35.70;;;;;;;12.92;81.19;97743.70;108571;1250;95637;-75
2023/05/26 01:44:55;;;;;;;52.00;35.90;;;;;;;12.91;80.98;97743.58;108900;1250;96030;-74
2023/05/26 01:47:26;;;;;;;52.50;35.70;;;;;;;12.89;81.11;97743.42;108829;1250;103715;-75
2023/05/26 01:50:00;;;;;;;60.90;36.80;;;;;;;12.84;81.22;97742.77;108916;1249;101519;-74
2023/05/26 01:52:28;;;;;;;50.20;35.00;;;;;;;12.80;81.21;97741.77;108871;1250;99717;-75
2023/05/26 01:55:02;;;;;;;52.30;35.40;;;;;;;12.80;81.34;97745.44;108803;1250;95566;-74
2023/05/26 01:57:31;;;;;;;51.70;35.10;;;;;;;12.81;81.25;97741.51;108859;1250;95991;-74
2023/05/26 01:59:59;;;;;;;53.10;36.20;;;;;;;12.80;81.38;97737.96;108895;1250;103188;-75
2023/05/26 02:02:27;;;;;;;51.50;35.60;;;;;;;12.78;81.32;97737.20;108905;1250;100541;-76
2023/05/26 02:04:56;;;;;;;54.80;36.10;;;;;;;12.75;81.43;97738.29;108839;1250;99991;-75
2023/05/26 02:07:24;;;;;;;51.70;35.00;;;;;;;12.75;81.52;97736.54;108871;1250;95587;-75
2023/05/26 02:09:52;;;;;;;52.50;35.20;;;;;;;12.74;81.67;97730.96;108889;1250;95604;-76
2023/05/26 02:12:21;;;;;;;55.60;35.80;;;;;;;12.72;81.55;97735.00;108899;1250;103521;-74
2023/05/26 02:14:49;;;;;;;51.70;35.00;;;;;;;12.72;81.65;97732.96;108868;1250;101382;-76
2023/05/26 02:17:18;;;;;;;49.60;35.10;;;;;;;12.73;81.42;97732.72;108640;1251;108587;-74
2023/05/26 02:19:48;;;;;;;50.30;34.50;;;;;;;12.70;81.47;97735.23;108871;1250;97331;-74
2023/05/26 02:22:16;;;;;;;51.90;34.70;;;;;;;12.67;81.45;97737.92;108951;1250;96444;-74
2023/05/26 02:24:44;;;;;;;53.30;34.80;;;;;;;12.66;81.55;97736.39;108819;1250;103616;-75
2023/05/26 02:27:12;;;;;;;49.30;33.60;;;;;;;12.67;81.59;97734.75;108594;1250;100139;-74
2023/05/26 02:29:40;;;;;;;47.90;33.60;;;;;;;12.67;81.55;97727.89;108867;1250;99843;-77
2023/05/26 02:32:08;;;;;;;43.10;31.90;;;;;;;12.67;81.53;97727.05;108847;1250;95563;-73
2023/05/26 02:34:36;;;;;;;47.70;32.40;;;;;;;12.64;81.68;97726.90;108927;1250;96069;-74
2023/05/26 02:37:05;;;;;;;46.30;32.30;;;;;;;12.59;81.69;97729.03;108864;1250;103445;-75
2023/05/26 02:39:33;;;;;;;47.90;32.40;;;;;;;12.56;81.66;97731.70;108684;1251;100698;-76
2023/05/26 02:42:01;;;;;;;46.10;31.10;;;;;;;12.55;81.72;97731.53;108826;1250;99409;-74
2023/05/26 02:44:30;;;;;;;45.80;32.50;;;;;;;12.54;81.74;97733.20;108856;1250;95488;-74
2023/05/26 02:46:58;;;;;;;49.50;32.20;;;;;;;12.49;81.63;97729.88;108907;1250;96101;-74
2023/05/26 02:49:26;;;;;;;50.30;32.40;;;;;;;12.45;81.76;97729.89;108904;1250;103327;-75
2023/05/26 02:51:53;;;;;;;45.40;31.60;;;;;;;12.45;81.89;97727.05;108899;1250;101629;-74
2023/05/26 02:54:21;;;;;;;46.90;31.30;;;;;;;12.45;81.84;97726.09;108855;1250;99885;-75
2023/05/26 02:56:50;;;;;;;45.50;31.30;;;;;;;12.45;81.83;97726.63;108863;1250;95596;-74
2023/05/26 02:59:18;;;;;;;43.60;30.40;;;;;;;12.42;81.84;97728.38;108915;1250;95573;-74
2023/05/26 03:01:46;;;;;;;45.10;30.50;;;;;;;12.39;81.93;97733.09;108927;1250;103592;-74
2023/05/26 03:04:14;;;;;;;44.50;31.10;;;;;;;12.38;81.90;97736.10;108896;1250;101417;-76
2023/05/26 03:06:43;;;;;;;43.00;30.20;;;;;;;12.35;81.88;97735.34;108868;1250;99013;-77
2023/05/26 03:09:11;;;;;;;48.60;32.30;;;;;;;12.29;81.97;97734.39;108919;1251;95656;-74
2023/05/26 03:11:39;;;;;;;48.00;32.80;;;;;;;12.27;82.19;97732.35;108885;1250;96091;-74
2023/05/26 03:14:07;;;;;;;56.70;34.70;;;;;;;12.25;82.31;97730.52;108858;1250;103589;-76
2023/05/26 03:16:35;;;;;;;54.80;36.40;;;;;;;12.24;82.36;97733.06;108937;1250;101221;-76
2023/05/26 03:19:04;;;;;;;52.30;35.30;;;;;;;12.24;82.48;97731.73;108854;1250;100211;-77
2023/05/26 03:21:33;;;;;;;54.50;34.70;;;;;;;12.26;82.58;97729.36;108747;1250;95922;-74
2023/05/26 03:24:01;;;;;;;55.80;36.20;;;;;;;12.26;82.53;97728.65;108916;1250;96401;-74
2023/05/26 03:26:29;;;;;;;51.90;35.60;;;;;;;12.25;82.60;97722.77;108761;1250;103472;-74
2023/05/26 03:28:57;;;;;;;60.80;37.60;;;;;;;12.25;82.66;97718.78;108883;1250;101630;-75
2023/05/26 03:31:26;;;;;;;53.50;36.10;;;;;;;12.25;82.55;97719.08;108845;1250;99711;-74
2023/05/26 03:33:54;;;;;;;59.60;36.70;;;;;;;12.24;82.50;97715.33;108667;1250;95913;-73
2023/05/26 03:36:22;;;;;;;58.20;36.20;;;;;;;12.26;82.70;97715.65;108935;1250;96097;-75
2023/05/26 03:38:50;;;;;;;53.30;35.10;;;;;;;12.28;82.79;97713.23;108864;1250;103768;-75
2023/05/26 03:41:18;;;;;;;55.50;35.40;;;;;;;12.29;82.75;97715.77;108798;1250;101634;-75
2023/05/26 03:43:46;;;;;;;58.00;35.20;;;;;;;12.32;82.81;97718.54;108743;1250;100116;-74
2023/05/26 03:46:15;;;;;;;51.30;33.20;;;;;;;12.36;82.87;97716.52;108732;1250;95651;-76
2023/05/26 03:48:43;;;;;;;51.20;32.80;;;;;;;12.41;82.71;97716.52;108887;1251;96016;-73
2023/05/26 03:51:11;;;;;;;49.80;33.60;;;;;;;12.43;82.60;97716.45;108968;1250;103462;-73
2023/05/26 03:53:39;;;;;;;58.20;31.90;;;;;;;12.46;82.72;97716.35;108908;1250;101507;-74
2023/05/26 03:56:07;;;;;;;57.10;32.90;;;;;;;12.49;82.59;97712.51;108921;1250;100101;-74
2023/05/26 03:58:35;;;;;;;53.30;32.20;;;;;;;12.52;82.51;97707.20;108608;1251;95598;-74
2023/05/26 04:01:04;;;;;;;53.60;32.70;;;;;;;12.55;82.48;97707.89;108819;1250;96020;-75
2023/05/26 04:03:33;;;;;;;51.40;32.70;;;;;;;12.57;82.30;97703.42;108890;1250;103683;-73
2023/05/26 04:06:01;;;;;;;51.00;31.20;;;;;;;12.61;82.40;97702.53;108785;1249;102857;-74
2023/05/26 04:08:30;;;;;;;51.30;31.40;;;;;;;12.67;82.43;97704.95;108782;1250;99986;-74
2023/05/26 04:10:58;;;;;;;45.40;31.30;;;;;;;12.71;82.33;97703.55;108659;1250;95602;-74
2023/05/26 04:13:26;;;;;;;52.50;32.20;;;;;;;12.75;82.27;97705.54;108894;1250;96019;-74
2023/05/26 04:15:54;;;;;;;51.10;31.90;;;;;;;12.76;82.19;97706.79;108913;1250;103554;-74
2023/05/26 04:18:23;;;;;;;45.60;30.00;;;;;;;12.74;82.06;97707.92;108798;1253;101388;-76
2023/05/26 04:20:51;;;;;;;47.00;30.10;;;;;;;12.73;81.94;97715.63;108880;1250;100010;-73
2023/05/26 04:23:20;;;;;;;44.10;28.80;;;;;;;12.74;81.98;97713.17;108851;1250;95579;-75
2023/05/26 04:25:48;;;;;;;47.70;30.60;;;;;;;12.75;81.80;97710.33;108861;1250;96541;-74
2023/05/26 04:28:16;;;;;;;47.30;31.00;;;;;;;12.76;81.68;97711.61;108875;1250;103719;-74
2023/05/26 04:30:44;;;;;;;45.20;29.20;;;;;;;12.77;81.86;97709.58;108693;1250;102653;-73
2023/05/26 04:33:13;;;;;;;48.30;29.50;;;;;;;12.77;81.84;97711.33;108842;1250;100072;-73
2023/05/26 04:35:41;;;;;;;46.30;28.80;;;;;;;12.78;81.78;97709.06;108851;1250;95566;-74
2023/05/26 04:38:12;;;;;;;49.10;29.40;;;;;;;12.78;81.75;97709.20;108904;1253;96050;-73
2023/05/26 04:40:40;;;;;;;43.30;28.80;;;;;;;12.80;81.76;97708.42;108831;1250;103148;-76
2023/05/26 04:43:08;;;;;;;40.90;27.50;;;;;;;12.82;81.68;97709.14;108920;1250;101254;-74
2023/05/26 04:45:37;;;;;;;43.80;29.10;;;;;;;12.84;81.60;97711.89;108876;1250;108195;-74
2023/05/26 04:48:05;;;;;;;45.90;30.50;;;;;;;12.87;81.76;97707.20;108899;1250;95650;-74
2023/05/26 04:50:33;;;;;;;49.00;30.20;;;;;;;12.90;81.88;97706.52;108891;1250;96058;-77
2023/05/26 04:53:02;;;;;;;44.20;28.80;;;;;;;12.95;81.96;97709.77;108908;1250;103784;-74
2023/05/26 04:55:30;;;;;;;53.00;31.60;;;;;;;12.99;81.81;97711.88;108961;1250;101375;-74
2023/05/26 04:57:58;;;;;;;47.20;31.90;;;;;;;13.04;81.86;97709.80;108904;1250;100262;-77
2023/05/26 05:00:26;;;;;;;49.90;31.70;;;;;;;13.10;81.80;97709.34;108732;1250;95668;-73
2023/05/26 05:02:54;;;;;;;49.40;31.00;;;;;;;13.15;81.64;97711.11;108898;1250;95763;-74
2023/05/26 05:05:22;;;;;;;49.90;30.80;;;;;;;13.19;81.71;97705.13;108911;1249;102620;-74
2023/05/26 05:07:50;;;;;;;47.50;31.10;;;;;;;13.23;81.54;97700.48;108885;1250;101461;-74
2023/05/26 05:10:19;;;;;;;49.30;31.30;;;;;;;13.28;81.64;97704.42;108866;1250;99873;-75
2023/05/26 05:12:47;;;;;;;46.40;31.90;;;;;;;13.34;81.51;97709.17;108864;1250;95819;-74
2023/05/26 05:15:18;;;;;;;51.20;30.30;;;;;;;13.40;81.48;97706.20;108914;1250;96041;-74
2023/05/26 05:17:47;;;;;;;47.40;30.60;;;;;;;13.46;81.27;97707.70;108629;1251;103178;-74
2023/05/26 05:20:15;;;;;;;54.10;31.50;;;;;;;13.52;81.17;97706.14;108912;1250;101247;-74
2023/05/26 05:22:43;;;;;;;43.10;30.40;;;;;;;13.57;81.12;97706.09;108903;1250;99646;-74
2023/05/26 05:25:11;;;;;;;47.60;30.30;;;;;;;13.62;81.14;97703.08;108721;1253;95963;-76
2023/05/26 05:27:39;;;;;;;44.30;29.30;;;;;;;13.69;81.21;97701.97;108881;1250;96019;-73
2023/05/26 05:30:08;;;;;;;43.70;30.10;;;;;;;13.76;80.94;97700.14;108764;1250;103151;-74
2023/05/26 05:32:36;;;;;;;40.10;27.50;;;;;;;13.84;81.00;97699.14;108691;1249;101211;-74
2023/05/26 05:35:05;;;;;;;45.60;28.30;;;;;;;13.93;80.93;97698.39;108869;1250;100036;-74
2023/05/26 05:37:33;;;;;;;44.60;29.00;;;;;;;14.02;80.67;97700.45;108870;1250;95842;-74
2023/05/26 05:40:01;;;;;;;44.10;30.20;;;;;;;14.11;80.52;97704.02;108907;1250;96029;-77
2023/05/26 05:42:29;;;;;;;49.80;31.20;;;;;;;14.18;80.53;97701.40;108898;1249;103088;-74
2023/05/26 05:44:57;;;;;;;45.90;30.40;;;;;;;14.26;80.34;97702.22;108888;1250;101113;-74
2023/05/26 05:47:25;;;;;;;39.60;28.40;;;;;;;14.32;80.27;97704.40;108867;1250;99894;-76
2023/05/26 05:49:54;;;;;;;43.70;29.00;;;;;;;14.35;80.10;97705.83;108873;1250;96136;-75
2023/05/26 05:52:22;;;;;;;40.70;27.60;;;;;;;14.40;79.93;97711.14;108849;1250;96020;-76
2023/05/26 05:54:50;;;;;;;40.80;27.30;;;;;;;14.47;80.12;97711.98;108859;1254;103477;-76
2023/05/26 05:57:18;;;;;;;42.80;28.50;;;;;;;14.53;79.89;97713.52;108681;1251;101288;-75
2023/05/26 05:59:46;;;;;;;46.00;30.60;;;;;;;14.58;79.83;97711.67;108840;1250;99714;-76
2023/05/26 06:02:14;;;;;;;45.50;28.80;;;;;;;14.62;79.43;97713.56;108914;1250;95819;-74
2023/05/26 06:04:43;;;;;;;40.20;29.40;;;;;;;14.63;79.28;97716.39;108778;1250;96294;-75
2023/05/26 06:07:11;;;;;;;43.10;29.60;;;;;;;14.68;79.41;97718.55;108919;1250;103414;-75
2023/05/26 06:09:39;;;;;;;46.00;30.60;;;;;;;14.75;79.53;97716.31;108894;1250;101356;-75
2023/05/26 06:12:07;;;;;;;42.00;30.00;;;;;;;14.85;79.35;97718.23;108652;1251;99900;-75
2023/05/26 06:14:35;;;;;;;42.80;29.30;;;;;;;14.94;79.21;97713.50;108913;1250;95585;-75
2023/05/26 06:17:04;;;;;;;43.60;28.20;;;;;;;15.01;79.14;97711.13;108893;1250;96333;-74
2023/05/26 06:19:32;;;;;;;39.10;28.20;;;;;;;15.07;79.11;97709.88;108936;1250;103528;-75
2023/05/26 06:22:01;;;;;;;42.00;28.30;;;;;;;15.15;79.17;97707.20;108857;1251;101715;-75
2023/05/26 06:24:29;;;;;;;40.40;28.90;;;;;;;15.25;78.89;97711.09;108819;1250;99858;-75
2023/05/26 06:26:57;;;;;;;35.70;26.00;;;;;;;15.34;78.69;97712.34;108792;1251;95953;-77
2023/05/26 06:29:25;;;;;;;44.50;28.90;;;;;;;15.39;78.34;97710.91;108736;1251;96049;-74
2023/05/26 06:31:53;;;;;;;39.60;26.10;;;;;;;15.46;78.09;97712.42;108929;1249;103712;-74
2023/05/26 06:34:21;;;;;;;40.80;27.00;;;;;;;15.55;78.14;97710.27;108872;1250;101340;-76
2023/05/26 06:36:50;;;;;;;42.00;27.70;;;;;;;15.62;77.97;97708.88;108882;1250;99983;-75
2023/05/26 06:39:19;;;;;;;40.00;25.80;;;;;;;15.71;77.71;97708.09;108598;1251;95627;-73
2023/05/26 06:41:47;;;;;;;31.80;23.90;;;;;;;15.80;77.61;97708.65;108853;1250;96028;-74
2023/05/26 06:44:15;;;;;;;35.00;24.90;;;;;;;15.88;77.37;97709.75;108918;1250;103468;-74
2023/05/26 06:46:44;;;;;;;30.30;24.20;;;;;;;15.97;77.25;97714.85;108888;1251;101325;-76
2023/05/26 06:49:12;;;;;;;34.00;24.40;;;;;;;16.07;77.06;97718.77;108898;1250;99838;-75
2023/05/26 06:51:40;;;;;;;35.60;25.00;;;;;;;16.20;76.90;97717.85;108896;1251;95581;-74
2023/05/26 06:54:08;;;;;;;38.50;25.60;;;;;;;16.31;76.63;97718.09;108913;1250;96719;-76
2023/05/26 06:56:36;;;;;;;35.10;24.80;;;;;;;16.40;76.54;97716.61;109002;1249;103574;-75
2023/05/26 06:59:05;;;;;;;31.40;24.90;;;;;;;16.51;76.60;97719.48;108970;1251;101251;-75
2023/05/26 07:01:33;;;;;;;36.30;24.90;;;;;;;16.65;76.42;97724.92;108891;1250;99877;-75
2023/05/26 07:04:01;;;;;;;34.90;24.60;;;;;;;16.76;75.97;97721.62;108897;1250;95640;-75
2023/05/26 07:06:30;;;;;;;35.10;24.20;;;;;;;16.87;75.89;97719.59;108876;1251;97499;-75
2023/05/26 07:08:58;;;;;;;34.20;24.00;;;;;;;16.95;75.38;97718.77;108951;1249;103864;-78
2023/05/26 07:11:27;;;;;;;35.70;25.50;;;;;;;17.05;75.17;97716.53;108978;1250;101002;-74
2023/05/26 07:13:55;;;;;;;35.60;24.30;;;;;;;17.15;75.02;97718.14;108879;1251;108486;-76
2023/05/26 07:16:23;;;;;;;38.40;24.10;;;;;;;17.24;74.69;97714.44;108905;1249;95586;-74
2023/05/26 07:18:51;;;;;;;36.90;23.30;;;;;;;17.36;74.77;97714.90;108891;1251;96478;-74
2023/05/26 07:21:21;;;;;;;30.30;21.40;;;;;;;17.49;74.52;97716.43;108961;1249;103672;-75
2023/05/26 07:23:50;;;;;;;30.70;21.50;;;;;;;17.56;74.12;97716.60;108994;1250;101414;-74
2023/05/26 07:26:18;;;;;;;30.20;21.50;;;;;;;17.56;73.86;97718.35;108898;1250;99944;-75
2023/05/26 07:28:48;;;;;;;33.20;21.30;;;;;;;17.61;73.89;97716.31;108877;1250;95843;-75
2023/05/26 07:31:16;;;;;;;32.90;20.50;;;;;;;17.71;73.88;97717.26;108904;1250;96031;-75
2023/05/26 07:33:44;;;;;;;29.80;19.60;;;;;;;17.81;73.69;97719.22;108907;1250;103570;-75
2023/05/26 07:36:12;;;;;;;29.90;19.20;;;;;;;17.93;73.46;97718.90;108361;1251;100360;-74
2023/05/26 07:38:40;;;;;;;27.70;19.80;;;;;;;18.03;73.00;97721.77;108871;1250;99856;-75
2023/05/26 07:41:09;;;;;;;27.60;18.40;;;;;;;18.12;72.81;97720.88;108920;1250;95571;-76
2023/05/26 07:43:37;;;;;;;29.30;19.60;;;;;;;18.27;72.45;97721.80;108922;1250;96380;-76
2023/05/26 07:46:05;;;;;;;25.00;19.40;;;;;;;18.44;72.64;97719.88;108939;1251;103737;-75
2023/05/26 07:48:33;;;;;;;27.00;20.40;;;;;;;18.57;72.13;97718.42;108903;1250;101487;-75
2023/05/26 07:51:02;;;;;;;26.70;19.60;;;;;;;18.70;71.70;97723.45;108863;1250;99827;-76
2023/05/26 07:53:31;;;;;;;27.30;19.90;;;;;;;18.77;71.30;97723.70;108903;1250;95594;-74
2023/05/26 07:55:59;;;;;;;25.50;18.20;;;;;;;18.83;71.09;97725.96;108935;1250;96055;-76
2023/05/26 07:58:27;;;;;;;26.40;19.70;;;;;;;18.88;70.91;97727.11;108936;1250;103084;-77
2023/05/26 08:00:55;;;;;;;27.40;20.20;;;;;;;18.87;70.79;97726.88;108947;1250;101241;-75
2023/05/26 08:03:23;;;;;;;26.40;19.70;;;;;;;18.82;70.64;97723.88;108900;1250;99741;-75
2023/05/26 08:05:51;;;;;;;26.50;19.60;;;;;;;18.78;70.56;97723.71;108867;1250;95606;-75
2023/05/26 08:08:20;;;;;;;30.30;20.40;;;;;;;18.75;70.44;97723.61;108913;1250;95609;-75
2023/05/26 08:10:48;;;;;;;27.30;19.30;;;;;;;18.73;70.28;97721.35;108907;1250;103246;-74
2023/05/26 08:13:16;;;;;;;25.10;18.20;;;;;;;18.74;70.05;97719.01;108882;1250;101209;-75
2023/05/26 08:15:44;;;;;;;28.80;19.80;;;;;;;18.78;70.21;97719.23;108891;1250;99965;-74
2023/05/26 08:18:12;;;;;;;30.50;19.40;;;;;;;18.86;69.95;97721.55;108787;1250;95644;-77
2023/05/26 08:20:40;;;;;;;22.70;17.90;;;;;;;18.94;69.65;97719.18;108931;1254;96527;-76
2023/05/26 08:23:08;;;;;;;27.80;18.00;;;;;;;19.03;69.67;97718.35;108758;1250;103696;-75
2023/05/26 08:25:36;;;;;;;23.20;17.60;;;;;;;19.22;69.66;97720.17;108861;1250;101279;-75
2023/05/26 08:28:05;;;;;;;25.10;18.00;;;;;;;19.59;69.46;97719.27;108904;1250;99881;-75
2023/05/26 08:30:33;;;;;;;25.00;16.40;;;;;;;20.15;69.37;97719.48;108899;1250;95574;-76
2023/05/26 08:33:01;;;;;;;23.20;17.20;;;;;;;20.57;68.54;97717.86;108852;1250;96014;-74
2023/05/26 08:35:30;;;;;;;25.90;17.10;;;;;;;20.70;67.78;97715.81;108920;1250;103834;-75
2023/05/26 08:37:58;;;;;;;20.60;16.20;;;;;;;20.76;67.11;97716.77;108941;1250;101525;-74
2023/05/26 08:40:26;;;;;;;21.30;15.80;;;;;;;20.99;66.60;97713.98;108907;1250;99893;-75
2023/05/26 08:42:57;;;;;;;20.80;15.60;;;;;;;21.19;66.28;97709.11;108916;1250;95775;-75
2023/05/26 08:45:25;;;;;;;20.80;15.70;;;;;;;21.41;66.07;97710.30;108747;1251;96010;-75
2023/05/26 08:47:57;;;;;;;21.90;16.00;;;;;;;21.54;65.13;97711.52;108876;1250;103542;-75
2023/05/26 08:50:26;;;;;;;19.50;15.60;;;;;;;21.36;64.48;97705.08;108883;1250;101301;-77
2023/05/26 08:52:54;;;;;;;18.00;14.40;;;;;;;21.21;64.73;97699.84;108883;1250;99903;-75
2023/05/26 08:55:23;;;;;;;18.50;13.50;;;;;;;21.16;64.70;97700.90;108896;1250;95594;-74
2023/05/26 08:57:53;;;;;;;16.40;12.60;;;;;;;21.14;64.23;97700.95;108893;1250;96112;-75
2023/05/26 09:00:22;;;;;;;19.70;12.50;;;;;;;21.10;64.09;97695.69;108974;1250;103862;-78
2023/05/26 09:02:50;;;;;;;17.70;12.00;;;;;;;21.02;64.05;97698.04;108911;1250;101157;-77
2023/05/26 09:05:21;;;;;;;16.00;12.20;;;;;;;20.93;63.59;97698.73;108927;1250;99843;-75
2023/05/26 09:07:49;;;;;;;14.80;10.90;;;;;;;20.84;63.70;97702.86;108895;1250;95874;-75
2023/05/26 09:10:43;;;;;;;16.60;12.40;;;;;;;20.81;63.87;97703.51;108921;1250;96024;-74
2023/05/26 09:13:13;;;;;;;15.60;12.10;;;;;;;20.78;63.35;97698.79;108291;1259;103334;-77
2023/05/26 09:15:53;;;;;;;13.90;10.60;;;;;;;20.75;63.13;97697.25;108111;1259;100501;-75
2023/05/26 09:18:21;;;;;;;14.90;9.80;;;;;;;20.69;62.87;97699.41;108287;1258;100027;-75
2023/05/26 09:20:51;;;;;;;12.90;10.40;;;;;;;20.66;63.05;97698.52;108217;1258;95652;-77
2023/05/26 09:23:22;;;;;;;13.30;9.40;;;;;;;20.66;62.99;97697.10;108261;1260;96076;-78
2023/05/26 09:25:52;;;;;;;14.30;10.40;;;;;;;20.61;62.96;97694.67;108283;1260;103524;-75
2023/05/26 09:28:21;;;;;;;14.70;10.50;;;;;;;20.58;63.31;97692.58;108251;1260;101307;-77
2023/05/26 09:30:51;;;;;;;16.80;10.80;;;;;;;20.61;63.36;97695.77;108244;1259;99869;-74
2023/05/26 09:33:20;;;;;;;14.70;10.60;;;;;;;20.65;63.45;97697.55;108144;1258;95621;-77
2023/05/26 09:35:50;;;;;;;13.30;10.50;;;;;;;20.65;63.12;97697.70;108251;1260;96426;-74
2023/05/26 09:38:20;;;;;;;20.20;12.40;;;;;;;20.66;62.92;97694.18;108257;1258;103625;-75
2023/05/26 09:40:50;;;;;;;21.90;12.60;;;;;;;20.67;62.78;97695.72;108257;1258;101677;-73
2023/05/26 09:43:23;;;;;;;18.20;12.20;;;;;;;20.66;62.73;97697.36;108257;1259;100205;-75
2023/05/26 09:45:51;;;;;;;17.70;12.20;;;;;;;20.64;62.73;97693.86;108073;1260;95836;-74
2023/05/26 09:48:20;;;;;;;18.00;11.90;;;;;;;20.61;62.70;97693.85;108140;1258;95711;-74
2023/05/26 09:50:53;;;;;;;17.60;12.50;;;;;;;20.59;62.52;97688.52;108596;1250;103706;-75
2023/05/26 09:53:21;;;;;;;14.70;10.90;;;;;;;20.55;62.81;97686.96;108676;1250;102452;-75
2023/05/26 09:55:54;;;;;;;18.20;12.30;;;;;;;20.46;62.99;97685.50;108915;1250;99657;-75
2023/05/26 09:58:25;;;;;;;14.50;11.70;;;;;;;20.46;62.87;97683.20;108891;1250;95587;-75
2023/05/26 10:00:55;;;;;;;13.40;11.10;;;;;;;20.51;62.70;97681.80;108929;1250;97055;-77
2023/05/26 10:03:24;;;;;;;15.40;11.00;;;;;;;20.56;62.38;97686.85;108890;1250;103594;-74
2023/05/26 10:05:56;;;;;;;17.50;10.30;;;;;;;20.58;62.45;97686.31;108896;1250;100353;-74
2023/05/26 10:08:26;;;;;;;18.50;10.80;;;;;;;20.60;62.15;97682.55;108772;1250;99928;-74
2023/05/26 10:10:55;;;;;;;13.20;10.30;;;;;;;20.63;61.88;97680.59;108802;1251;95861;-77
2023/05/26 10:13:23;;;;;;;13.60;10.00;;;;;;;20.63;62.27;97679.77;108713;1249;96019;-75
2023/05/26 10:15:52;;;;;;;12.80;9.40;;;;;;;20.69;62.34;97679.72;108351;1250;102596;-74
2023/05/26 10:18:21;;;;;;;13.70;9.70;;;;;;;20.72;61.72;97676.44;108692;1249;101086;-74
2023/05/26 10:20:54;;;;;;;20.10;9.80;;;;;;;20.70;61.88;97674.90;108589;1250;100026;-75
2023/05/26 10:23:48;;;;;;;10.90;9.40;;;;;;;20.80;62.14;97673.94;108732;1251;95622;-75
2023/05/26 10:26:34;;;;;;;16.30;10.60;;;;;;;20.92;62.25;97672.05;108685;1250;96161;-75
2023/05/26 10:29:07;;;;;;;12.10;9.00;;;;;;;21.13;61.73;97673.96;108862;1251;103149;-74
2023/05/26 10:31:37;;;;;;;11.70;9.60;;;;;;;21.33;61.14;97670.81;108887;1250;101330;-76
2023/05/26 10:34:32;;;;;;;14.30;9.20;;;;;;;21.52;61.03;97671.42;108884;1250;99963;-75
2023/05/26 10:37:12;;;;;;;11.80;9.10;;;;;;;21.83;60.57;97668.76;108919;1250;95654;-75
2023/05/26 10:39:41;;;;;;;14.60;9.10;;;;;;;22.05;60.07;97670.02;108927;1250;95985;-76
2023/05/26 10:42:18;;;;;;;11.00;8.10;;;;;;;22.08;59.40;97668.42;108676;1250;102672;-75
2023/05/26 10:44:51;;;;;;;10.70;8.40;;;;;;;22.05;58.95;97670.13;108940;1250;101338;-76
2023/05/26 10:47:20;;;;;;;11.20;8.50;;;;;;;21.87;58.70;97668.81;108880;1250;99954;-74
2023/05/26 10:50:00;;;;;;;16.20;8.90;;;;;;;21.73;58.54;97665.80;108844;1251;95866;-75
2023/05/26 10:52:46;;;;;;;10.60;8.40;;;;;;;21.59;58.67;97662.08;108894;1250;96542;-74
2023/05/26 10:55:32;;;;;;;13.60;7.80;;;;;;;21.43;58.60;97663.28;108890;1250;102299;-74
2023/05/26 10:58:28;;;;;;;14.30;8.30;;;;;;;21.36;58.48;97662.36;108914;1250;100326;-74
2023/05/26 11:01:04;;;;;;;12.50;9.40;;;;;;;21.25;58.96;97663.85;108619;1250;99796;-75
2023/05/26 11:03:36;;;;;;;12.80;8.70;;;;;;;21.08;59.28;97664.45;108846;1250;95837;-77
2023/05/26 11:06:08;;;;;;;15.60;8.90;;;;;;;21.00;59.53;97664.71;108937;1250;95777;-75
2023/05/26 11:08:38;;;;;;;;;;;;;;;21.01;59.20;97662.67;108920;1250;103536;-75
2023/05/26 11:11:10;;;;;;;13.70;8.70;;;;;;;21.07;59.13;97665.21;108945;1250;101044;-73
2023/05/26 11:13:47;;;;;;;11.80;8.40;;;;;;;21.17;59.26;97664.91;108826;1250;99713;-75
2023/05/26 11:16:18;;;;;;;14.40;9.10;;;;;;;21.20;59.06;97659.84;108887;1250;95653;-74
2023/05/26 11:18:52;;;;;;;14.10;9.00;;;;;;;21.16;59.04;97659.13;108943;1250;95930;-75